Des Peres, Missouri
Current Conditions -  °F | °C
As of 1:51 AM on Monday 26 Jan 2015 (Local Time) from KSTL Reporting Station
Scattered Clouds Scattered Clouds  
Wind Chill: 19°   Ceiling: Unl
Heat Index: 29°   Visibility: 10mi
Dew Point: 20°   Wind: 12mph
Humidity: 69%   Direction: 310°NW
Pressure: 30.04"   Gusts: NA
Location:  38.5796°N, 90.4197°W
Report Text: KSTL 260751Z 31010KT 10SM FEW015 SCT200 M02/M07 A3004 RMK AO2 SLP181 T10171067
Loading
Personal Weather Stations






























Interactive Weather Map New forecast layout! Learn more

10-Day Weather Forecast

Advertisements
Track Severe Weather on mobile